sensor_id;sensor_type;location;lat;lon;timestamp;temperature;humidity
53268;DHT22;39156;51.176;6.738;2023-06-10T00:01:36;22.30;48.50
53268;DHT22;39156;51.176;6.738;2023-06-10T00:04:02;22.30;49.20
53268;DHT22;39156;51.176;6.738;2023-06-10T00:06:28;22.20;48.70
53268;DHT22;39156;51.176;6.738;2023-06-10T00:09:04;22.20;48.80
53268;DHT22;39156;51.176;6.738;2023-06-10T00:11:33;22.20;49.50
53268;DHT22;39156;51.176;6.738;2023-06-10T00:14:00;22.20;49.40
53268;DHT22;39156;51.176;6.738;2023-06-10T00:16:26;22.20;49.70
53268;DHT22;39156;51.176;6.738;2023-06-10T00:18:51;22.10;49.80
53268;DHT22;39156;51.176;6.738;2023-06-10T00:21:17;22.10;50.20
53268;DHT22;39156;51.176;6.738;2023-06-10T00:23:44;22.00;50.30
53268;DHT22;39156;51.176;6.738;2023-06-10T00:26:10;22.00;50.50
53268;DHT22;39156;51.176;6.738;2023-06-10T00:28:36;22.00;50.50
53268;DHT22;39156;51.176;6.738;2023-06-10T00:31:01;21.90;50.80
53268;DHT22;39156;51.176;6.738;2023-06-10T00:33:28;21.90;50.90
53268;DHT22;39156;51.176;6.738;2023-06-10T00:35:54;21.80;51.00
53268;DHT22;39156;51.176;6.738;2023-06-10T00:38:20;21.70;51.30
53268;DHT22;39156;51.176;6.738;2023-06-10T00:40:45;21.70;51.60
53268;DHT22;39156;51.176;6.738;2023-06-10T00:43:11;21.60;51.70
53268;DHT22;39156;51.176;6.738;2023-06-10T00:45:37;21.60;51.90
53268;DHT22;39156;51.176;6.738;2023-06-10T00:48:04;21.60;52.20
53268;DHT22;39156;51.176;6.738;2023-06-10T00:50:30;21.50;52.30
53268;DHT22;39156;51.176;6.738;2023-06-10T00:52:56;21.50;52.60
53268;DHT22;39156;51.176;6.738;2023-06-10T00:55:23;21.50;52.80
53268;DHT22;39156;51.176;6.738;2023-06-10T00:57:50;21.30;53.00
53268;DHT22;39156;51.176;6.738;2023-06-10T01:00:16;21.30;53.10
53268;DHT22;39156;51.176;6.738;2023-06-10T01:02:43;21.20;53.20
53268;DHT22;39156;51.176;6.738;2023-06-10T01:05:09;21.20;53.60
53268;DHT22;39156;51.176;6.738;2023-06-10T01:07:48;21.10;53.80
53268;DHT22;39156;51.176;6.738;2023-06-10T01:10:25;21.10;52.90
53268;DHT22;39156;51.176;6.738;2023-06-10T01:12:58;21.00;54.10
53268;DHT22;39156;51.176;6.738;2023-06-10T01:15:31;21.00;53.60
53268;DHT22;39156;51.176;6.738;2023-06-10T01:17:58;21.00;54.00
53268;DHT22;39156;51.176;6.738;2023-06-10T01:20:28;20.90;54.50
53268;DHT22;39156;51.176;6.738;2023-06-10T01:22:55;20.90;54.90
53268;DHT22;39156;51.176;6.738;2023-06-10T01:25:23;20.80;54.90
53268;DHT22;39156;51.176;6.738;2023-06-10T01:28:07;20.80;55.20
53268;DHT22;39156;51.176;6.738;2023-06-10T01:33:42;20.70;55.80
53268;DHT22;39156;51.176;6.738;2023-06-10T01:36:12;20.70;56.00
53268;DHT22;39156;51.176;6.738;2023-06-10T01:38:46;20.60;55.90
53268;DHT22;39156;51.176;6.738;2023-06-10T01:41:14;20.50;56.60
53268;DHT22;39156;51.176;6.738;2023-06-10T01:43:43;20.50;56.60
53268;DHT22;39156;51.176;6.738;2023-06-10T01:46:10;20.50;56.90
53268;DHT22;39156;51.176;6.738;2023-06-10T01:48:37;20.40;56.90
53268;DHT22;39156;51.176;6.738;2023-06-10T01:51:03;20.30;57.30
53268;DHT22;39156;51.176;6.738;2023-06-10T01:53:29;20.30;57.70
53268;DHT22;39156;51.176;6.738;2023-06-10T01:55:55;20.30;57.70
53268;DHT22;39156;51.176;6.738;2023-06-10T01:58:21;20.20;57.80
53268;DHT22;39156;51.176;6.738;2023-06-10T02:00:47;20.20;57.90
53268;DHT22;39156;51.176;6.738;2023-06-10T02:03:12;20.10;58.10
53268;DHT22;39156;51.176;6.738;2023-06-10T02:05:38;20.10;58.20
53268;DHT22;39156;51.176;6.738;2023-06-10T02:08:04;20.10;58.40
53268;DHT22;39156;51.176;6.738;2023-06-10T02:10:30;20.10;58.60
53268;DHT22;39156;51.176;6.738;2023-06-10T02:12:56;20.00;58.70
53268;DHT22;39156;51.176;6.738;2023-06-10T02:15:22;19.90;58.80
53268;DHT22;39156;51.176;6.738;2023-06-10T02:17:47;19.90;59.20
53268;DHT22;39156;51.176;6.738;2023-06-10T02:20:16;19.90;59.30
53268;DHT22;39156;51.176;6.738;2023-06-10T02:22:41;19.90;59.50
53268;DHT22;39156;51.176;6.738;2023-06-10T02:25:07;19.80;59.60
53268;DHT22;39156;51.176;6.738;2023-06-10T02:27:33;19.80;60.00
53268;DHT22;39156;51.176;6.738;2023-06-10T02:29:59;19.70;60.20
53268;DHT22;39156;51.176;6.738;2023-06-10T02:32:25;19.70;60.50
53268;DHT22;39156;51.176;6.738;2023-06-10T02:34:51;19.70;60.60
53268;DHT22;39156;51.176;6.738;2023-06-10T02:37:17;19.70;60.80
53268;DHT22;39156;51.176;6.738;2023-06-10T02:39:42;19.70;60.90
53268;DHT22;39156;51.176;6.738;2023-06-10T02:42:08;19.70;60.90
53268;DHT22;39156;51.176;6.738;2023-06-10T02:44:35;19.60;60.70
53268;DHT22;39156;51.176;6.738;2023-06-10T02:47:00;19.70;60.00
53268;DHT22;39156;51.176;6.738;2023-06-10T02:49:26;19.60;60.50
53268;DHT22;39156;51.176;6.738;2023-06-10T02:51:53;19.60;60.60
53268;DHT22;39156;51.176;6.738;2023-06-10T02:54:20;19.60;59.80
53268;DHT22;39156;51.176;6.738;2023-06-10T02:56:46;19.60;60.40
53268;DHT22;39156;51.176;6.738;2023-06-10T02:59:13;19.50;60.50
53268;DHT22;39156;51.176;6.738;2023-06-10T03:01:40;19.50;60.60
53268;DHT22;39156;51.176;6.738;2023-06-10T03:04:06;19.40;60.80
53268;DHT22;39156;51.176;6.738;2023-06-10T03:06:33;19.40;60.80
53268;DHT22;39156;51.176;6.738;2023-06-10T03:09:00;19.40;61.00
53268;DHT22;39156;51.176;6.738;2023-06-10T03:11:25;19.40;61.00
53268;DHT22;39156;51.176;6.738;2023-06-10T03:13:51;19.40;61.10
53268;DHT22;39156;51.176;6.738;2023-06-10T03:16:19;19.30;60.90
53268;DHT22;39156;51.176;6.738;2023-06-10T03:18:45;19.30;61.00
53268;DHT22;39156;51.176;6.738;2023-06-10T03:21:10;19.30;61.30
53268;DHT22;39156;51.176;6.738;2023-06-10T03:23:36;19.30;61.40
53268;DHT22;39156;51.176;6.738;2023-06-10T03:26:03;19.30;61.40
53268;DHT22;39156;51.176;6.738;2023-06-10T03:28:30;19.20;61.40
53268;DHT22;39156;51.176;6.738;2023-06-10T03:30:56;19.30;61.60
53268;DHT22;39156;51.176;6.738;2023-06-10T03:33:22;19.30;61.60
53268;DHT22;39156;51.176;6.738;2023-06-10T03:35:48;19.20;61.60
53268;DHT22;39156;51.176;6.738;2023-06-10T03:38:14;19.20;61.60
53268;DHT22;39156;51.176;6.738;2023-06-10T03:40:39;19.20;61.60
53268;DHT22;39156;51.176;6.738;2023-06-10T03:43:05;19.20;61.80
53268;DHT22;39156;51.176;6.738;2023-06-10T03:45:31;19.20;61.90
53268;DHT22;39156;51.176;6.738;2023-06-10T03:47:58;19.20;62.50
53268;DHT22;39156;51.176;6.738;2023-06-10T03:50:23;19.20;62.20
53268;DHT22;39156;51.176;6.738;2023-06-10T03:52:50;19.10;62.10
53268;DHT22;39156;51.176;6.738;2023-06-10T03:55:16;19.20;62.30
53268;DHT22;39156;51.176;6.738;2023-06-10T03:57:43;19.20;62.40
53268;DHT22;39156;51.176;6.738;2023-06-10T04:00:09;19.20;62.40
53268;DHT22;39156;51.176;6.738;2023-06-10T04:02:37;19.20;62.50
53268;DHT22;39156;51.176;6.738;2023-06-10T04:05:03;19.30;62.60
53268;DHT22;39156;51.176;6.738;2023-06-10T04:07:30;19.30;62.60
53268;DHT22;39156;51.176;6.738;2023-06-10T04:09:56;19.30;62.70
53268;DHT22;39156;51.176;6.738;2023-06-10T04:12:22;19.30;62.90
53268;DHT22;39156;51.176;6.738;2023-06-10T04:14:47;19.30;63.20
53268;DHT22;39156;51.176;6.738;2023-06-10T04:17:13;19.60;63.50
53268;DHT22;39156;51.176;6.738;2023-06-10T04:19:38;19.80;63.50
53268;DHT22;39156;51.176;6.738;2023-06-10T04:22:04;20.10;63.50
53268;DHT22;39156;51.176;6.738;2023-06-10T04:24:30;20.50;63.40
53268;DHT22;39156;51.176;6.738;2023-06-10T04:26:56;20.80;63.00
53268;DHT22;39156;51.176;6.738;2023-06-10T04:29:22;21.20;62.60
53268;DHT22;39156;51.176;6.738;2023-06-10T04:31:47;21.60;62.20
53268;DHT22;39156;51.176;6.738;2023-06-10T04:34:14;22.00;61.50
53268;DHT22;39156;51.176;6.738;2023-06-10T04:36:39;22.40;61.50
53268;DHT22;39156;51.176;6.738;2023-06-10T04:39:05;22.80;60.70
53268;DHT22;39156;51.176;6.738;2023-06-10T04:41:31;23.20;60.00
53268;DHT22;39156;51.176;6.738;2023-06-10T04:43:57;23.60;59.40
53268;DHT22;39156;51.176;6.738;2023-06-10T04:46:23;24.00;58.80
53268;DHT22;39156;51.176;6.738;2023-06-10T04:48:49;24.30;58.20
53268;DHT22;39156;51.176;6.738;2023-06-10T04:51:15;24.70;57.60
53268;DHT22;39156;51.176;6.738;2023-06-10T04:53:42;25.10;58.30
53268;DHT22;39156;51.176;6.738;2023-06-10T04:56:08;25.40;56.80
53268;DHT22;39156;51.176;6.738;2023-06-10T04:58:34;25.80;57.70
53268;DHT22;39156;51.176;6.738;2023-06-10T05:00:59;26.20;55.10
53268;DHT22;39156;51.176;6.738;2023-06-10T05:03:26;26.50;54.10
53268;DHT22;39156;51.176;6.738;2023-06-10T05:05:51;26.90;56.50
53268;DHT22;39156;51.176;6.738;2023-06-10T05:08:18;27.20;53.20
53268;DHT22;39156;51.176;6.738;2023-06-10T05:10:43;27.50;51.60
53268;DHT22;39156;51.176;6.738;2023-06-10T05:13:09;27.80;51.00
53268;DHT22;39156;51.176;6.738;2023-06-10T05:15:35;28.00;50.90
53268;DHT22;39156;51.176;6.738;2023-06-10T05:18:02;28.30;50.30
53268;DHT22;39156;51.176;6.738;2023-06-10T05:20:28;28.60;49.90
53268;DHT22;39156;51.176;6.738;2023-06-10T05:22:53;28.80;48.20
53268;DHT22;39156;51.176;6.738;2023-06-10T05:25:19;29.00;47.20
53268;DHT22;39156;51.176;6.738;2023-06-10T05:27:45;29.20;47.10
53268;DHT22;39156;51.176;6.738;2023-06-10T05:30:11;29.30;46.50
53268;DHT22;39156;51.176;6.738;2023-06-10T05:32:37;29.50;46.30
53268;DHT22;39156;51.176;6.738;2023-06-10T05:35:03;29.70;46.10
53268;DHT22;39156;51.176;6.738;2023-06-10T05:37:30;29.90;46.20
53268;DHT22;39156;51.176;6.738;2023-06-10T05:39:55;30.10;45.20
53268;DHT22;39156;51.176;6.738;2023-06-10T05:42:21;30.20;44.80
53268;DHT22;39156;51.176;6.738;2023-06-10T05:44:47;30.40;44.40
53268;DHT22;39156;51.176;6.738;2023-06-10T05:47:13;30.60;44.30
53268;DHT22;39156;51.176;6.738;2023-06-10T05:49:38;30.70;44.10
53268;DHT22;39156;51.176;6.738;2023-06-10T05:52:04;30.90;43.50
53268;DHT22;39156;51.176;6.738;2023-06-10T05:54:30;31.10;43.10
53268;DHT22;39156;51.176;6.738;2023-06-10T05:56:56;31.30;42.60
53268;DHT22;39156;51.176;6.738;2023-06-10T05:59:22;31.50;42.70
53268;DHT22;39156;51.176;6.738;2023-06-10T06:01:50;31.60;42.40
53268;DHT22;39156;51.176;6.738;2023-06-10T06:04:16;31.80;42.00
53268;DHT22;39156;51.176;6.738;2023-06-10T06:06:42;32.10;41.60
53268;DHT22;39156;51.176;6.738;2023-06-10T06:09:07;32.30;41.30
53268;DHT22;39156;51.176;6.738;2023-06-10T06:11:34;32.50;41.00
53268;DHT22;39156;51.176;6.738;2023-06-10T06:14:00;32.70;40.80
53268;DHT22;39156;51.176;6.738;2023-06-10T06:16:26;32.90;40.70
53268;DHT22;39156;51.176;6.738;2023-06-10T06:18:51;33.00;40.00
53268;DHT22;39156;51.176;6.738;2023-06-10T06:21:17;33.20;39.50
53268;DHT22;39156;51.176;6.738;2023-06-10T06:23:43;33.30;39.10
53268;DHT22;39156;51.176;6.738;2023-06-10T06:26:08;33.50;39.10
53268;DHT22;39156;51.176;6.738;2023-06-10T06:28:34;33.70;39.00
53268;DHT22;39156;51.176;6.738;2023-06-10T06:31:00;33.80;38.90
53268;DHT22;39156;51.176;6.738;2023-06-10T06:33:26;33.90;38.70
53268;DHT22;39156;51.176;6.738;2023-06-10T06:35:52;34.10;38.60
53268;DHT22;39156;51.176;6.738;2023-06-10T06:38:17;34.20;38.10
53268;DHT22;39156;51.176;6.738;2023-06-10T06:40:43;34.30;38.20
53268;DHT22;39156;51.176;6.738;2023-06-10T06:43:09;34.40;38.10
53268;DHT22;39156;51.176;6.738;2023-06-10T06:45:34;34.40;37.80
53268;DHT22;39156;51.176;6.738;2023-06-10T06:48:00;34.50;37.80
53268;DHT22;39156;51.176;6.738;2023-06-10T06:50:26;34.60;37.70
53268;DHT22;39156;51.176;6.738;2023-06-10T06:52:52;34.70;37.30
53268;DHT22;39156;51.176;6.738;2023-06-10T06:55:17;34.80;37.00
53268;DHT22;39156;51.176;6.738;2023-06-10T06:57:43;35.00;36.40
53268;DHT22;39156;51.176;6.738;2023-06-10T07:00:09;35.30;36.30
53268;DHT22;39156;51.176;6.738;2023-06-10T07:02:35;35.50;35.10
53268;DHT22;39156;51.176;6.738;2023-06-10T07:05:01;35.70;35.50
53268;DHT22;39156;51.176;6.738;2023-06-10T07:07:27;35.80;35.50
53268;DHT22;39156;51.176;6.738;2023-06-10T07:09:53;35.80;35.00
53268;DHT22;39156;51.176;6.738;2023-06-10T07:12:18;35.80;35.00
53268;DHT22;39156;51.176;6.738;2023-06-10T07:14:44;35.90;34.80
53268;DHT22;39156;51.176;6.738;2023-06-10T07:17:10;35.90;34.80
53268;DHT22;39156;51.176;6.738;2023-06-10T07:19:36;35.90;34.60
53268;DHT22;39156;51.176;6.738;2023-06-10T07:22:01;35.90;34.40
53268;DHT22;39156;51.176;6.738;2023-06-10T07:24:27;35.90;33.90
53268;DHT22;39156;51.176;6.738;2023-06-10T07:26:53;35.90;33.90
53268;DHT22;39156;51.176;6.738;2023-06-10T07:29:19;36.00;34.50
53268;DHT22;39156;51.176;6.738;2023-06-10T07:31:44;36.20;34.40
53268;DHT22;39156;51.176;6.738;2023-06-10T07:34:10;36.20;34.30
53268;DHT22;39156;51.176;6.738;2023-06-10T07:36:36;36.30;34.30
53268;DHT22;39156;51.176;6.738;2023-06-10T07:39:02;36.40;34.40
53268;DHT22;39156;51.176;6.738;2023-06-10T07:41:27;36.60;34.20
53268;DHT22;39156;51.176;6.738;2023-06-10T07:43:53;36.70;34.50
53268;DHT22;39156;51.176;6.738;2023-06-10T07:46:23;36.90;33.80
53268;DHT22;39156;51.176;6.738;2023-06-10T07:48:49;37.00;33.00
53268;DHT22;39156;51.176;6.738;2023-06-10T07:51:16;37.20;32.60
53268;DHT22;39156;51.176;6.738;2023-06-10T07:53:42;37.30;32.50
53268;DHT22;39156;51.176;6.738;2023-06-10T07:56:08;37.60;32.70
53268;DHT22;39156;51.176;6.738;2023-06-10T07:58:33;37.70;32.80
53268;DHT22;39156;51.176;6.738;2023-06-10T08:00:59;37.80;32.50
53268;DHT22;39156;51.176;6.738;2023-06-10T08:03:25;38.00;32.50
53268;DHT22;39156;51.176;6.738;2023-06-10T08:05:51;38.10;33.30
53268;DHT22;39156;51.176;6.738;2023-06-10T08:08:16;38.20;32.50
53268;DHT22;39156;51.176;6.738;2023-06-10T08:10:42;38.30;32.30
53268;DHT22;39156;51.176;6.738;2023-06-10T08:13:08;38.40;31.90
53268;DHT22;39156;51.176;6.738;2023-06-10T08:15:34;38.40;32.00
53268;DHT22;39156;51.176;6.738;2023-06-10T08:18:00;38.30;31.90
53268;DHT22;39156;51.176;6.738;2023-06-10T08:20:25;38.30;32.10
53268;DHT22;39156;51.176;6.738;2023-06-10T08:22:51;38.20;32.30
53268;DHT22;39156;51.176;6.738;2023-06-10T08:25:17;38.10;32.20
53268;DHT22;39156;51.176;6.738;2023-06-10T08:27:42;38.10;32.30
53268;DHT22;39156;51.176;6.738;2023-06-10T08:30:08;38.00;32.30
53268;DHT22;39156;51.176;6.738;2023-06-10T08:32:36;38.00;32.80
53268;DHT22;39156;51.176;6.738;2023-06-10T08:35:02;38.00;32.50
53268;DHT22;39156;51.176;6.738;2023-06-10T08:37:29;37.90;32.30
53268;DHT22;39156;51.176;6.738;2023-06-10T08:39:55;37.90;32.50
53268;DHT22;39156;51.176;6.738;2023-06-10T08:42:28;37.90;32.50
53268;DHT22;39156;51.176;6.738;2023-06-10T08:45:00;38.00;32.60
53268;DHT22;39156;51.176;6.738;2023-06-10T08:47:29;38.10;32.50
53268;DHT22;39156;51.176;6.738;2023-06-10T08:49:57;38.20;32.50
53268;DHT22;39156;51.176;6.738;2023-06-10T08:52:33;38.30;32.60
53268;DHT22;39156;51.176;6.738;2023-06-10T08:55:30;38.40;32.50
53268;DHT22;39156;51.176;6.738;2023-06-10T08:58:02;38.50;32.50
53268;DHT22;39156;51.176;6.738;2023-06-10T09:00:29;38.60;32.50
53268;DHT22;39156;51.176;6.738;2023-06-10T09:02:57;38.70;32.30
53268;DHT22;39156;51.176;6.738;2023-06-10T09:05:24;38.80;32.20
53268;DHT22;39156;51.176;6.738;2023-06-10T09:07:52;38.80;32.20
53268;DHT22;39156;51.176;6.738;2023-06-10T09:10:19;38.90;32.00
53268;DHT22;39156;51.176;6.738;2023-06-10T09:12:45;38.90;32.10
53268;DHT22;39156;51.176;6.738;2023-06-10T09:15:11;39.00;32.40
53268;DHT22;39156;51.176;6.738;2023-06-10T09:17:38;39.10;32.20
53268;DHT22;39156;51.176;6.738;2023-06-10T09:20:06;39.20;32.40
53268;DHT22;39156;51.176;6.738;2023-06-10T09:22:33;39.30;32.30
53268;DHT22;39156;51.176;6.738;2023-06-10T09:25:07;39.40;32.20
53268;DHT22;39156;51.176;6.738;2023-06-10T09:27:50;39.40;31.80
53268;DHT22;39156;51.176;6.738;2023-06-10T09:30:30;39.40;31.90
53268;DHT22;39156;51.176;6.738;2023-06-10T09:33:09;39.50;31.90
53268;DHT22;39156;51.176;6.738;2023-06-10T09:35:48;39.50;32.00
53268;DHT22;39156;51.176;6.738;2023-06-10T09:38:19;39.60;31.80
53268;DHT22;39156;51.176;6.738;2023-06-10T09:40:54;39.50;32.00
53268;DHT22;39156;51.176;6.738;2023-06-10T09:43:20;39.30;31.60
53268;DHT22;39156;51.176;6.738;2023-06-10T09:45:50;39.10;31.50
53268;DHT22;39156;51.176;6.738;2023-06-10T09:48:18;39.00;31.70
53268;DHT22;39156;51.176;6.738;2023-06-10T09:50:45;38.90;31.60
53268;DHT22;39156;51.176;6.738;2023-06-10T09:53:11;38.80;32.20
53268;DHT22;39156;51.176;6.738;2023-06-10T09:55:41;38.70;32.60
53268;DHT22;39156;51.176;6.738;2023-06-10T09:58:07;38.40;32.00
53268;DHT22;39156;51.176;6.738;2023-06-10T10:00:33;38.30;32.20
53268;DHT22;39156;51.176;6.738;2023-06-10T10:03:00;38.20;32.10
53268;DHT22;39156;51.176;6.738;2023-06-10T10:05:27;38.20;32.10
53268;DHT22;39156;51.176;6.738;2023-06-10T10:07:53;38.20;32.20
53268;DHT22;39156;51.176;6.738;2023-06-10T10:10:20;38.10;32.10
53268;DHT22;39156;51.176;6.738;2023-06-10T10:12:47;38.00;32.40
53268;DHT22;39156;51.176;6.738;2023-06-10T10:15:16;37.90;32.10
53268;DHT22;39156;51.176;6.738;2023-06-10T10:17:48;37.60;32.20
53268;DHT22;39156;51.176;6.738;2023-06-10T10:20:20;37.20;32.50
53268;DHT22;39156;51.176;6.738;2023-06-10T10:22:52;36.80;32.50
53268;DHT22;39156;51.176;6.738;2023-06-10T10:25:32;36.50;32.60
53268;DHT22;39156;51.176;6.738;2023-06-10T10:28:08;36.20;32.80
53268;DHT22;39156;51.176;6.738;2023-06-10T10:30:40;36.00;32.70
53268;DHT22;39156;51.176;6.738;2023-06-10T10:33:12;35.80;32.80
53268;DHT22;39156;51.176;6.738;2023-06-10T10:35:39;35.60;33.30
53268;DHT22;39156;51.176;6.738;2023-06-10T10:38:06;35.40;33.00
53268;DHT22;39156;51.176;6.738;2023-06-10T10:40:32;35.20;33.20
53268;DHT22;39156;51.176;6.738;2023-06-10T10:42:59;34.90;33.10
53268;DHT22;39156;51.176;6.738;2023-06-10T10:45:27;34.80;33.20
53268;DHT22;39156;51.176;6.738;2023-06-10T10:47:54;34.60;33.30
53268;DHT22;39156;51.176;6.738;2023-06-10T10:50:21;34.50;33.50
53268;DHT22;39156;51.176;6.738;2023-06-10T10:55:24;34.30;33.40
53268;DHT22;39156;51.176;6.738;2023-06-10T10:57:55;34.10;33.00
53268;DHT22;39156;51.176;6.738;2023-06-10T11:00:30;33.90;33.10
53268;DHT22;39156;51.176;6.738;2023-06-10T11:05:47;33.70;33.70
53268;DHT22;39156;51.176;6.738;2023-06-10T11:08:15;33.70;33.70
53268;DHT22;39156;51.176;6.738;2023-06-10T11:10:51;33.60;33.50
53268;DHT22;39156;51.176;6.738;2023-06-10T11:13:20;33.60;33.90
53268;DHT22;39156;51.176;6.738;2023-06-10T11:15:50;33.50;33.70
53268;DHT22;39156;51.176;6.738;2023-06-10T11:18:29;33.50;33.60
53268;DHT22;39156;51.176;6.738;2023-06-10T11:21:04;33.40;33.80
53268;DHT22;39156;51.176;6.738;2023-06-10T11:31:19;32.80;33.70
53268;DHT22;39156;51.176;6.738;2023-06-10T11:33:47;32.60;33.80
53268;DHT22;39156;51.176;6.738;2023-06-10T11:36:14;32.40;34.20
53268;DHT22;39156;51.176;6.738;2023-06-10T11:38:44;32.40;34.30
53268;DHT22;39156;51.176;6.738;2023-06-10T11:41:14;32.20;34.50
53268;DHT22;39156;51.176;6.738;2023-06-10T11:43:44;32.20;35.00
53268;DHT22;39156;51.176;6.738;2023-06-10T11:46:11;32.20;35.00
53268;DHT22;39156;51.176;6.738;2023-06-10T11:48:37;32.20;34.70
53268;DHT22;39156;51.176;6.738;2023-06-10T11:51:06;32.20;34.50
53268;DHT22;39156;51.176;6.738;2023-06-10T11:53:33;32.20;34.50
53268;DHT22;39156;51.176;6.738;2023-06-10T11:55:59;32.30;34.70
53268;DHT22;39156;51.176;6.738;2023-06-10T11:58:25;32.30;34.60
53268;DHT22;39156;51.176;6.738;2023-06-10T12:00:52;32.30;34.40
53268;DHT22;39156;51.176;6.738;2023-06-10T12:03:20;32.30;34.20
53268;DHT22;39156;51.176;6.738;2023-06-10T12:06:00;32.30;34.50
53268;DHT22;39156;51.176;6.738;2023-06-10T12:08:28;32.20;34.60
53268;DHT22;39156;51.176;6.738;2023-06-10T12:10:55;32.20;34.60
53268;DHT22;39156;51.176;6.738;2023-06-10T12:13:22;32.20;34.70
53268;DHT22;39156;51.176;6.738;2023-06-10T12:15:49;32.10;34.60
53268;DHT22;39156;51.176;6.738;2023-06-10T12:18:20;32.00;34.70
53268;DHT22;39156;51.176;6.738;2023-06-10T12:20:46;32.00;34.60
53268;DHT22;39156;51.176;6.738;2023-06-10T12:23:14;31.90;34.80
53268;DHT22;39156;51.176;6.738;2023-06-10T12:25:53;31.70;35.00
53268;DHT22;39156;51.176;6.738;2023-06-10T12:28:23;31.60;35.20
53268;DHT22;39156;51.176;6.738;2023-06-10T12:30:49;31.40;35.50
53268;DHT22;39156;51.176;6.738;2023-06-10T12:33:19;31.30;35.80
53268;DHT22;39156;51.176;6.738;2023-06-10T12:35:49;31.10;36.00
53268;DHT22;39156;51.176;6.738;2023-06-10T12:38:23;31.00;36.20
53268;DHT22;39156;51.176;6.738;2023-06-10T12:41:02;31.00;35.80
53268;DHT22;39156;51.176;6.738;2023-06-10T12:43:31;30.90;36.30
53268;DHT22;39156;51.176;6.738;2023-06-10T12:46:11;30.90;36.60
53268;DHT22;39156;51.176;6.738;2023-06-10T12:48:49;30.80;36.60
53268;DHT22;39156;51.176;6.738;2023-06-10T12:51:17;30.80;36.50
53268;DHT22;39156;51.176;6.738;2023-06-10T12:53:43;30.70;36.50
53268;DHT22;39156;51.176;6.738;2023-06-10T12:56:09;30.70;36.70
53268;DHT22;39156;51.176;6.738;2023-06-10T12:58:35;30.70;37.00
53268;DHT22;39156;51.176;6.738;2023-06-10T13:01:01;30.70;36.60
53268;DHT22;39156;51.176;6.738;2023-06-10T13:03:26;30.70;36.80
53268;DHT22;39156;51.176;6.738;2023-06-10T13:05:52;30.70;36.60
53268;DHT22;39156;51.176;6.738;2023-06-10T13:08:18;30.70;36.50
53268;DHT22;39156;51.176;6.738;2023-06-10T13:10:43;30.70;36.40
53268;DHT22;39156;51.176;6.738;2023-06-10T13:13:09;30.70;36.40
53268;DHT22;39156;51.176;6.738;2023-06-10T13:15:35;30.60;36.30
53268;DHT22;39156;51.176;6.738;2023-06-10T13:18:04;30.60;36.30
53268;DHT22;39156;51.176;6.738;2023-06-10T13:20:30;30.60;36.30
53268;DHT22;39156;51.176;6.738;2023-06-10T13:22:56;30.70;35.60
53268;DHT22;39156;51.176;6.738;2023-06-10T13:25:22;30.80;36.10
53268;DHT22;39156;51.176;6.738;2023-06-10T13:27:48;30.80;35.90
53268;DHT22;39156;51.176;6.738;2023-06-10T13:30:14;31.00;35.80
53268;DHT22;39156;51.176;6.738;2023-06-10T13:32:40;31.20;35.00
53268;DHT22;39156;51.176;6.738;2023-06-10T13:35:06;31.30;35.10
53268;DHT22;39156;51.176;6.738;2023-06-10T13:37:32;31.50;34.80
53268;DHT22;39156;51.176;6.738;2023-06-10T13:39:59;31.60;34.90
53268;DHT22;39156;51.176;6.738;2023-06-10T13:42:25;31.80;34.60
53268;DHT22;39156;51.176;6.738;2023-06-10T13:44:54;32.00;34.50
53268;DHT22;39156;51.176;6.738;2023-06-10T13:47:20;32.20;34.80
53268;DHT22;39156;51.176;6.738;2023-06-10T13:49:46;32.30;35.00
53268;DHT22;39156;51.176;6.738;2023-06-10T13:52:11;32.30;34.70
53268;DHT22;39156;51.176;6.738;2023-06-10T13:54:37;32.30;34.50
53268;DHT22;39156;51.176;6.738;2023-06-10T13:57:03;32.30;34.40
53268;DHT22;39156;51.176;6.738;2023-06-10T13:59:29;32.20;34.50
53268;DHT22;39156;51.176;6.738;2023-06-10T14:01:55;32.00;34.70
53268;DHT22;39156;51.176;6.738;2023-06-10T14:04:21;32.00;35.00
53268;DHT22;39156;51.176;6.738;2023-06-10T14:06:47;31.80;34.90
53268;DHT22;39156;51.176;6.738;2023-06-10T14:09:14;31.70;35.00
53268;DHT22;39156;51.176;6.738;2023-06-10T14:11:41;31.60;35.30
53268;DHT22;39156;51.176;6.738;2023-06-10T14:14:07;31.50;35.20
53268;DHT22;39156;51.176;6.738;2023-06-10T14:16:33;31.50;35.50
53268;DHT22;39156;51.176;6.738;2023-06-10T14:18:58;31.40;35.40
53268;DHT22;39156;51.176;6.738;2023-06-10T14:21:24;31.50;35.40
53268;DHT22;39156;51.176;6.738;2023-06-10T14:23:50;31.50;35.50
53268;DHT22;39156;51.176;6.738;2023-06-10T14:26:17;31.50;35.40
53268;DHT22;39156;51.176;6.738;2023-06-10T14:28:43;31.50;35.60
53268;DHT22;39156;51.176;6.738;2023-06-10T14:31:09;31.50;35.90
53268;DHT22;39156;51.176;6.738;2023-06-10T14:33:34;31.40;35.60
53268;DHT22;39156;51.176;6.738;2023-06-10T14:36:00;31.40;35.80
53268;DHT22;39156;51.176;6.738;2023-06-10T14:38:26;31.30;35.90
53268;DHT22;39156;51.176;6.738;2023-06-10T14:40:52;31.30;35.70
53268;DHT22;39156;51.176;6.738;2023-06-10T14:43:18;31.20;35.90
53268;DHT22;39156;51.176;6.738;2023-06-10T14:45:44;31.20;35.80
53268;DHT22;39156;51.176;6.738;2023-06-10T14:48:10;31.10;35.60
53268;DHT22;39156;51.176;6.738;2023-06-10T14:50:39;31.10;35.60
53268;DHT22;39156;51.176;6.738;2023-06-10T14:53:06;31.00;35.30
53268;DHT22;39156;51.176;6.738;2023-06-10T14:55:32;31.00;35.20
53268;DHT22;39156;51.176;6.738;2023-06-10T14:57:57;31.00;35.30
53268;DHT22;39156;51.176;6.738;2023-06-10T15:00:23;30.90;35.40
53268;DHT22;39156;51.176;6.738;2023-06-10T15:02:50;30.80;35.40
53268;DHT22;39156;51.176;6.738;2023-06-10T15:05:17;30.80;36.00
53268;DHT22;39156;51.176;6.738;2023-06-10T15:07:44;30.80;35.80
53268;DHT22;39156;51.176;6.738;2023-06-10T15:10:11;30.70;36.30
53268;DHT22;39156;51.176;6.738;2023-06-10T15:12:36;30.60;36.30
53268;DHT22;39156;51.176;6.738;2023-06-10T15:15:02;30.50;36.00
53268;DHT22;39156;51.176;6.738;2023-06-10T15:17:29;30.50;36.60
53268;DHT22;39156;51.176;6.738;2023-06-10T15:19:54;30.40;36.70
53268;DHT22;39156;51.176;6.738;2023-06-10T15:22:20;30.40;36.30
53268;DHT22;39156;51.176;6.738;2023-06-10T15:24:46;30.30;36.50
53268;DHT22;39156;51.176;6.738;2023-06-10T15:27:12;30.20;36.20
53268;DHT22;39156;51.176;6.738;2023-06-10T15:29:37;30.20;36.20
53268;DHT22;39156;51.176;6.738;2023-06-10T15:32:03;30.10;36.10
53268;DHT22;39156;51.176;6.738;2023-06-10T15:34:29;30.10;36.30
53268;DHT22;39156;51.176;6.738;2023-06-10T15:36:55;30.00;35.70
53268;DHT22;39156;51.176;6.738;2023-06-10T15:39:21;30.00;35.70
53268;DHT22;39156;51.176;6.738;2023-06-10T15:41:46;30.00;35.80
53268;DHT22;39156;51.176;6.738;2023-06-10T15:44:12;29.90;35.80
53268;DHT22;39156;51.176;6.738;2023-06-10T15:46:37;30.00;36.20